sensor_id;sensor_type;location;lat;lon;timestamp;pressure;altitude;pressure_sealevel;temperature;humidity
66430;BME280;53242;51.694;10.006;2023-03-17T00:02:22;99342.69;;;4.35;61.39
66430;BME280;53242;51.694;10.006;2023-03-17T00:04:44;99342.22;;;4.32;61.71
66430;BME280;53242;51.694;10.006;2023-03-17T00:07:09;99333.38;;;4.33;61.42
66430;BME280;53242;51.694;10.006;2023-03-17T00:09:35;99332.59;;;4.40;61.00
66430;BME280;53242;51.694;10.006;2023-03-17T00:11:57;99330.03;;;4.49;60.46
66430;BME280;53242;51.694;10.006;2023-03-17T00:14:20;99328.03;;;4.42;60.80
66430;BME280;53242;51.694;10.006;2023-03-17T00:16:46;99328.84;;;4.43;60.85
66430;BME280;53242;51.694;10.006;2023-03-17T00:19:15;99330.16;;;4.39;60.91
66430;BME280;53242;51.694;10.006;2023-03-17T00:21:38;99325.59;;;4.49;60.62
66430;BME280;53242;51.694;10.006;2023-03-17T00:24:01;99316.47;;;4.53;60.33
66430;BME280;53242;51.694;10.006;2023-03-17T00:26:25;99318.59;;;4.58;60.25
66430;BME280;53242;51.694;10.006;2023-03-17T00:28:48;99317.81;;;4.57;59.97
66430;BME280;53242;51.694;10.006;2023-03-17T00:31:14;99311.44;;;4.68;59.34
66430;BME280;53242;51.694;10.006;2023-03-17T00:33:38;99313.72;;;4.63;59.68
66430;BME280;53242;51.694;10.006;2023-03-17T00:36:00;99317.31;;;4.62;59.77
66430;BME280;53242;51.694;10.006;2023-03-17T00:38:23;99321.38;;;4.56;60.15
66430;BME280;53242;51.694;10.006;2023-03-17T00:40:46;99321.38;;;4.56;59.87
66430;BME280;53242;51.694;10.006;2023-03-17T00:43:09;99307.00;;;4.52;60.10
66430;BME280;53242;51.694;10.006;2023-03-17T00:45:31;99301.78;;;4.52;60.03
66430;BME280;53242;51.694;10.006;2023-03-17T00:47:54;99309.59;;;4.44;60.58
66430;BME280;53242;51.694;10.006;2023-03-17T00:50:20;99318.72;;;4.40;60.67
66430;BME280;53242;51.694;10.006;2023-03-17T00:52:45;99310.03;;;4.31;60.93
66430;BME280;53242;51.694;10.006;2023-03-17T00:55:08;99311.31;;;4.19;61.52
66430;BME280;53242;51.694;10.006;2023-03-17T00:57:31;99317.84;;;4.23;61.23
66430;BME280;53242;51.694;10.006;2023-03-17T00:59:54;99311.78;;;4.14;61.64
66430;BME280;53242;51.694;10.006;2023-03-17T01:02:16;99318.59;;;4.07;62.41
66430;BME280;53242;51.694;10.006;2023-03-17T01:04:40;99306.19;;;4.09;61.87
66430;BME280;53242;51.694;10.006;2023-03-17T01:07:03;99310.81;;;4.15;61.58
66430;BME280;53242;51.694;10.006;2023-03-17T01:09:26;99305.69;;;4.05;62.17
66430;BME280;53242;51.694;10.006;2023-03-17T01:11:49;99310.47;;;4.10;61.80
66430;BME280;53242;51.694;10.006;2023-03-17T01:14:11;99296.78;;;4.16;62.09
66430;BME280;53242;51.694;10.006;2023-03-17T01:16:34;99295.91;;;4.07;62.01
66430;BME280;53242;51.694;10.006;2023-03-17T01:18:56;99302.81;;;4.17;61.68
66430;BME280;53242;51.694;10.006;2023-03-17T01:21:19;99302.47;;;4.11;62.13
66430;BME280;53242;51.694;10.006;2023-03-17T01:23:41;99296.88;;;4.06;62.05
66430;BME280;53242;51.694;10.006;2023-03-17T01:26:04;99297.06;;;4.13;61.92
66430;BME280;53242;51.694;10.006;2023-03-17T01:28:28;99297.13;;;4.21;61.71
66430;BME280;53242;51.694;10.006;2023-03-17T01:30:50;99296.09;;;4.14;61.58
66430;BME280;53242;51.694;10.006;2023-03-17T01:33:13;99303.00;;;4.23;61.32
66430;BME280;53242;51.694;10.006;2023-03-17T01:35:36;99297.25;;;4.20;61.47
66430;BME280;53242;51.694;10.006;2023-03-17T01:37:59;99297.13;;;4.21;61.58
66430;BME280;53242;51.694;10.006;2023-03-17T01:40:27;99295.81;;;4.25;60.92
66430;BME280;53242;51.694;10.006;2023-03-17T01:42:53;99285.38;;;4.25;61.50
66430;BME280;53242;51.694;10.006;2023-03-17T01:48:20;99275.72;;;4.26;61.21
66430;BME280;53242;51.694;10.006;2023-03-17T01:50:45;99276.25;;;4.30;60.99
66430;BME280;53242;51.694;10.006;2023-03-17T01:53:09;99280.78;;;4.27;61.58
66430;BME280;53242;51.694;10.006;2023-03-17T01:55:33;99276.25;;;4.38;60.64
66430;BME280;53242;51.694;10.006;2023-03-17T01:57:56;99280.50;;;4.31;60.87
66430;BME280;53242;51.694;10.006;2023-03-17T02:00:20;99257.16;;;4.37;60.73
66430;BME280;53242;51.694;10.006;2023-03-17T02:02:47;99275.09;;;4.32;60.52
66430;BME280;53242;51.694;10.006;2023-03-17T02:05:12;99271.69;;;4.40;60.24
66430;BME280;53242;51.694;10.006;2023-03-17T02:07:35;99271.69;;;4.40;60.42
66430;BME280;53242;51.694;10.006;2023-03-17T02:09:59;99278.22;;;4.36;60.65
66430;BME280;53242;51.694;10.006;2023-03-17T02:12:21;99278.22;;;4.44;60.36
66430;BME280;53242;51.694;10.006;2023-03-17T02:14:45;99279.69;;;4.38;60.53
66430;BME280;53242;51.694;10.006;2023-03-17T02:17:09;99257.81;;;4.39;60.68
66430;BME280;53242;51.694;10.006;2023-03-17T02:19:31;99264.34;;;4.43;60.30
66430;BME280;53242;51.694;10.006;2023-03-17T02:21:55;99266.31;;;4.41;60.63
66430;BME280;53242;51.694;10.006;2023-03-17T02:28:08;99245.72;;;4.47;60.00
66430;BME280;53242;51.694;10.006;2023-03-17T02:30:35;99252.25;;;4.51;60.00
66430;BME280;53242;51.694;10.006;2023-03-17T02:32:57;99264.34;;;4.43;59.99
66430;BME280;53242;51.694;10.006;2023-03-17T02:35:20;99258.16;;;4.44;60.25
66430;BME280;53242;51.694;10.006;2023-03-17T02:37:43;99254.75;;;4.52;60.05
66430;BME280;53242;51.694;10.006;2023-03-17T02:40:08;99243.44;;;4.43;60.56
66430;BME280;53242;51.694;10.006;2023-03-17T02:42:32;99243.13;;;4.38;60.26
66430;BME280;53242;51.694;10.006;2023-03-17T02:44:55;99238.84;;;4.37;60.54
66430;BME280;53242;51.694;10.006;2023-03-17T02:47:18;99231.03;;;4.37;60.61
66430;BME280;53242;51.694;10.006;2023-03-17T02:49:40;99233.16;;;4.42;60.54
66430;BME280;53242;51.694;10.006;2023-03-17T02:52:04;99237.56;;;4.41;60.66
66430;BME280;53242;51.694;10.006;2023-03-17T02:54:27;99231.81;;;4.38;60.77
66430;BME280;53242;51.694;10.006;2023-03-17T02:56:49;99228.06;;;4.40;60.77
66430;BME280;53242;51.694;10.006;2023-03-17T02:59:11;99230.38;;;4.43;60.56
66430;BME280;53242;51.694;10.006;2023-03-17T03:01:34;99237.25;;;4.44;60.56
66430;BME280;53242;51.694;10.006;2023-03-17T03:03:57;99250.31;;;4.44;60.51
66430;BME280;53242;51.694;10.006;2023-03-17T03:06:19;99251.13;;;4.45;60.50
66430;BME280;53242;51.694;10.006;2023-03-17T03:08:42;99251.13;;;4.53;60.15
66430;BME280;53242;51.694;10.006;2023-03-17T03:11:04;99242.97;;;4.56;60.15
66430;BME280;53242;51.694;10.006;2023-03-17T03:13:27;99231.84;;;4.54;60.39
66430;BME280;53242;51.694;10.006;2023-03-17T03:15:49;99221.41;;;4.54;60.58
66430;BME280;53242;51.694;10.006;2023-03-17T03:18:12;99218.94;;;4.61;59.58
66430;BME280;53242;51.694;10.006;2023-03-17T03:20:34;99210.47;;;4.59;60.15
66430;BME280;53242;51.694;10.006;2023-03-17T03:22:57;99207.69;;;4.69;59.82
66430;BME280;53242;51.694;10.006;2023-03-17T03:25:19;99224.19;;;4.69;59.39
66430;BME280;53242;51.694;10.006;2023-03-17T03:27:42;99217.66;;;4.65;59.94
66430;BME280;53242;51.694;10.006;2023-03-17T03:30:05;99227.94;;;4.75;59.74
66430;BME280;53242;51.694;10.006;2023-03-17T03:32:29;99233.03;;;4.60;60.27
66430;BME280;53242;51.694;10.006;2023-03-17T03:34:51;99227.47;;;4.63;60.13
66430;BME280;53242;51.694;10.006;2023-03-17T03:37:14;99237.41;;;4.59;60.30
66430;BME280;53242;51.694;10.006;2023-03-17T03:39:36;99228.13;;;4.65;60.29
66430;BME280;53242;51.694;10.006;2023-03-17T03:41:59;99236.09;;;4.64;60.32
66430;BME280;53242;51.694;10.006;2023-03-17T03:44:21;99239.38;;;4.74;59.60
66430;BME280;53242;51.694;10.006;2023-03-17T03:46:44;99229.25;;;4.71;59.99
66430;BME280;53242;51.694;10.006;2023-03-17T03:49:06;99235.47;;;4.70;60.01
66430;BME280;53242;51.694;10.006;2023-03-17T03:51:29;99234.00;;;4.67;60.02
66430;BME280;53242;51.694;10.006;2023-03-17T03:53:51;99233.81;;;4.69;59.80
66430;BME280;53242;51.694;10.006;2023-03-17T03:56:14;99237.75;;;4.65;60.35
66430;BME280;53242;51.694;10.006;2023-03-17T03:58:36;99231.88;;;4.63;59.97
66430;BME280;53242;51.694;10.006;2023-03-17T04:01:03;99225.34;;;4.67;59.87
66430;BME280;53242;51.694;10.006;2023-03-17T04:03:25;99222.38;;;4.70;59.91
66430;BME280;53242;51.694;10.006;2023-03-17T04:05:48;99229.59;;;4.68;60.04
66430;BME280;53242;51.694;10.006;2023-03-17T04:08:10;99235.47;;;4.70;59.94
66430;BME280;53242;51.694;10.006;2023-03-17T04:10:33;99228.13;;;4.73;59.41
66430;BME280;53242;51.694;10.006;2023-03-17T04:12:55;99220.13;;;4.67;59.88
66430;BME280;53242;51.694;10.006;2023-03-17T04:15:18;99218.00;;;4.78;59.34
66430;BME280;53242;51.694;10.006;2023-03-17T04:17:41;99213.25;;;4.74;59.27
66430;BME280;53242;51.694;10.006;2023-03-17T04:20:04;99209.97;;;4.80;59.22
66430;BME280;53242;51.694;10.006;2023-03-17T04:22:27;99203.28;;;4.69;59.71
66430;BME280;53242;51.694;10.006;2023-03-17T04:24:49;99203.47;;;4.68;59.38
66430;BME280;53242;51.694;10.006;2023-03-17T04:27:12;99194.63;;;4.77;59.21
66430;BME280;53242;51.694;10.006;2023-03-17T04:29:36;99182.19;;;4.79;58.89
66430;BME280;53242;51.694;10.006;2023-03-17T04:31:59;99184.16;;;4.77;58.89
66430;BME280;53242;51.694;10.006;2023-03-17T04:34:21;99187.94;;;4.74;59.20
66430;BME280;53242;51.694;10.006;2023-03-17T04:36:46;99198.88;;;4.70;59.04
66430;BME280;53242;51.694;10.006;2023-03-17T04:39:08;99184.66;;;4.81;58.73
66430;BME280;53242;51.694;10.006;2023-03-17T04:41:31;99179.59;;;4.87;58.54
66430;BME280;53242;51.694;10.006;2023-03-17T04:43:53;99163.09;;;4.78;58.50
66430;BME280;53242;51.694;10.006;2023-03-17T04:46:16;99176.66;;;4.82;58.51
66430;BME280;53242;51.694;10.006;2023-03-17T04:48:38;99171.09;;;4.77;58.41
66430;BME280;53242;51.694;10.006;2023-03-17T04:51:01;99188.25;;;4.80;58.55
66430;BME280;53242;51.694;10.006;2023-03-17T04:53:23;99176.63;;;4.74;58.71
66430;BME280;53242;51.694;10.006;2023-03-17T04:55:46;99190.84;;;4.71;58.82
66430;BME280;53242;51.694;10.006;2023-03-17T04:58:08;99177.63;;;4.81;58.37
66430;BME280;53242;51.694;10.006;2023-03-17T05:00:31;99186.63;;;4.78;58.28
66430;BME280;53242;51.694;10.006;2023-03-17T05:02:54;99182.38;;;4.69;58.62
66430;BME280;53242;51.694;10.006;2023-03-17T05:05:17;99182.69;;;4.74;58.51
66430;BME280;53242;51.694;10.006;2023-03-17T05:07:39;99181.22;;;4.72;58.98
66430;BME280;53242;51.694;10.006;2023-03-17T05:10:03;99180.06;;;4.66;59.21
66430;BME280;53242;51.694;10.006;2023-03-17T05:12:27;99177.63;;;4.65;59.17
66430;BME280;53242;51.694;10.006;2023-03-17T05:14:49;99184.50;;;4.66;58.85
66430;BME280;53242;51.694;10.006;2023-03-17T05:17:12;99171.91;;;4.61;59.02
66430;BME280;53242;51.694;10.006;2023-03-17T05:19:34;99161.97;;;4.56;59.47
66430;BME280;53242;51.694;10.006;2023-03-17T05:21:57;99159.34;;;4.73;58.45
66430;BME280;53242;51.694;10.006;2023-03-17T05:24:19;99152.13;;;4.75;58.71
66430;BME280;53242;51.694;10.006;2023-03-17T05:26:42;99156.22;;;4.69;58.93
66430;BME280;53242;51.694;10.006;2023-03-17T05:29:06;99165.88;;;4.77;58.36
66430;BME280;53242;51.694;10.006;2023-03-17T05:31:28;99162.94;;;4.72;58.81
66430;BME280;53242;51.694;10.006;2023-03-17T05:33:52;99163.25;;;4.77;58.37
66430;BME280;53242;51.694;10.006;2023-03-17T05:36:14;99160.97;;;4.82;58.18
66430;BME280;53242;51.694;10.006;2023-03-17T05:38:37;99166.38;;;4.81;58.15
66430;BME280;53242;51.694;10.006;2023-03-17T05:40:59;99184.81;;;4.79;58.37
66430;BME280;53242;51.694;10.006;2023-03-17T05:43:23;99170.78;;;4.72;58.52
66430;BME280;53242;51.694;10.006;2023-03-17T05:45:45;99155.72;;;4.74;58.78
66430;BME280;53242;51.694;10.006;2023-03-17T05:48:09;99145.59;;;4.79;58.62
66430;BME280;53242;51.694;10.006;2023-03-17T05:50:33;99146.06;;;4.83;58.22
66430;BME280;53242;51.694;10.006;2023-03-17T05:52:55;99141.34;;;4.86;58.12
66430;BME280;53242;51.694;10.006;2023-03-17T05:55:18;99141.69;;;4.83;58.20
66430;BME280;53242;51.694;10.006;2023-03-17T05:57:40;99153.59;;;4.77;58.26
66430;BME280;53242;51.694;10.006;2023-03-17T06:00:03;99158.66;;;4.87;57.77
66430;BME280;53242;51.694;10.006;2023-03-17T06:02:27;99161.59;;;4.84;58.20
66430;BME280;53242;51.694;10.006;2023-03-17T06:04:49;99160.63;;;4.93;57.83
66430;BME280;53242;51.694;10.006;2023-03-17T06:07:11;99165.03;;;4.93;57.76
66430;BME280;53242;51.694;10.006;2023-03-17T06:09:35;99161.91;;;4.89;58.01
66430;BME280;53242;51.694;10.006;2023-03-17T06:11:57;99171.06;;;4.85;58.19
66430;BME280;53242;51.694;10.006;2023-03-17T06:14:20;99164.84;;;4.94;57.45
66430;BME280;53242;51.694;10.006;2023-03-17T06:16:44;99164.22;;;4.92;57.69
66430;BME280;53242;51.694;10.006;2023-03-17T06:19:07;99151.13;;;4.92;57.56
66430;BME280;53242;51.694;10.006;2023-03-17T06:21:29;99149.47;;;5.00;57.36
66430;BME280;53242;51.694;10.006;2023-03-17T06:23:52;99146.41;;;4.96;57.67
66430;BME280;53242;51.694;10.006;2023-03-17T06:26:14;99162.09;;;4.96;57.50
66430;BME280;53242;51.694;10.006;2023-03-17T06:28:37;99159.94;;;5.00;57.77
66430;BME280;53242;51.694;10.006;2023-03-17T06:30:59;99163.56;;;4.99;57.37
66430;BME280;53242;51.694;10.006;2023-03-17T06:33:22;99168.59;;;5.08;57.49
66430;BME280;53242;51.694;10.006;2023-03-17T06:35:44;99163.03;;;5.12;57.06
66430;BME280;53242;51.694;10.006;2023-03-17T06:38:07;99166.59;;;5.19;56.99
66430;BME280;53242;51.694;10.006;2023-03-17T06:40:29;99157.28;;;5.24;57.14
66430;BME280;53242;51.694;10.006;2023-03-17T06:42:53;99157.59;;;5.21;57.02
66430;BME280;53242;51.694;10.006;2023-03-17T06:45:15;99162.66;;;5.31;56.89
66430;BME280;53242;51.694;10.006;2023-03-17T06:47:38;99159.25;;;5.31;56.77
66430;BME280;53242;51.694;10.006;2023-03-17T06:50:00;99157.72;;;5.36;56.50
66430;BME280;53242;51.694;10.006;2023-03-17T06:52:23;99155.78;;;5.38;56.18
66430;BME280;53242;51.694;10.006;2023-03-17T06:54:46;99168.63;;;5.56;55.75
66430;BME280;53242;51.694;10.006;2023-03-17T06:57:08;99156.16;;;5.58;56.37
66430;BME280;53242;51.694;10.006;2023-03-17T06:59:30;99140.13;;;5.62;55.76
66430;BME280;53242;51.694;10.006;2023-03-17T07:01:53;99140.56;;;5.73;55.12
66430;BME280;53242;51.694;10.006;2023-03-17T07:04:15;99157.19;;;5.81;55.27
66430;BME280;53242;51.694;10.006;2023-03-17T07:06:38;99147.50;;;5.89;55.21
66430;BME280;53242;51.694;10.006;2023-03-17T07:09:00;99149.94;;;5.91;55.29
66430;BME280;53242;51.694;10.006;2023-03-17T07:11:23;99149.44;;;5.96;55.08
66430;BME280;53242;51.694;10.006;2023-03-17T07:13:47;99150.75;;;6.00;55.17
66430;BME280;53242;51.694;10.006;2023-03-17T07:16:10;99157.13;;;6.05;54.95
66430;BME280;53242;51.694;10.006;2023-03-17T07:18:33;99150.75;;;6.00;54.85
66430;BME280;53242;51.694;10.006;2023-03-17T07:20:56;99145.84;;;5.97;54.87
66430;BME280;53242;51.694;10.006;2023-03-17T07:23:20;99144.72;;;5.99;55.07
66430;BME280;53242;51.694;10.006;2023-03-17T07:25:44;99139.59;;;6.06;54.42
66430;BME280;53242;51.694;10.006;2023-03-17T07:28:08;99155.38;;;6.21;53.85
66430;BME280;53242;51.694;10.006;2023-03-17T07:30:31;99146.94;;;6.34;54.00
66430;BME280;53242;51.694;10.006;2023-03-17T07:32:53;99152.34;;;6.32;53.62
66430;BME280;53242;51.694;10.006;2023-03-17T07:35:16;99162.31;;;6.37;53.39
66430;BME280;53242;51.694;10.006;2023-03-17T07:37:38;99164.44;;;6.33;53.88
66430;BME280;53242;51.694;10.006;2023-03-17T07:40:01;99164.41;;;6.41;53.73
66430;BME280;53242;51.694;10.006;2023-03-17T07:42:23;99148.50;;;6.43;53.48
66430;BME280;53242;51.694;10.006;2023-03-17T07:44:46;99146.50;;;6.45;53.47
66430;BME280;53242;51.694;10.006;2023-03-17T07:47:09;99152.22;;;6.49;54.38
66430;BME280;53242;51.694;10.006;2023-03-17T07:49:32;99153.06;;;6.64;53.44
66430;BME280;53242;51.694;10.006;2023-03-17T07:51:55;99146.94;;;6.72;53.46
66430;BME280;53242;51.694;10.006;2023-03-17T07:54:17;99129.97;;;6.83;53.28
66430;BME280;53242;51.694;10.006;2023-03-17T07:56:40;99137.56;;;6.93;53.32
66430;BME280;53242;51.694;10.006;2023-03-17T07:59:03;99130.25;;;7.03;53.19
66430;BME280;53242;51.694;10.006;2023-03-17T08:01:26;99129.00;;;7.14;53.16
66430;BME280;53242;51.694;10.006;2023-03-17T08:03:49;99126.38;;;7.14;53.31
66430;BME280;53242;51.694;10.006;2023-03-17T08:06:11;99135.41;;;7.26;53.16
66430;BME280;53242;51.694;10.006;2023-03-17T08:08:33;99133.31;;;7.36;52.78
66430;BME280;53242;51.694;10.006;2023-03-17T08:11:04;99124.59;;;7.51;52.41
66430;BME280;53242;51.694;10.006;2023-03-17T08:13:26;99121.81;;;7.52;52.56
66430;BME280;53242;51.694;10.006;2023-03-17T08:15:51;99126.50;;;7.57;52.34
66430;BME280;53242;51.694;10.006;2023-03-17T08:18:13;99118.53;;;7.65;52.61
66430;BME280;53242;51.694;10.006;2023-03-17T08:20:36;99111.91;;;7.69;52.06
66430;BME280;53242;51.694;10.006;2023-03-17T08:22:59;99102.78;;;7.87;52.33
66430;BME280;53242;51.694;10.006;2023-03-17T08:25:22;99108.03;;;7.87;52.64
66430;BME280;53242;51.694;10.006;2023-03-17T08:27:45;99110.97;;;7.77;52.65
66430;BME280;53242;51.694;10.006;2023-03-17T08:30:09;99105.97;;;7.82;52.65
66430;BME280;53242;51.694;10.006;2023-03-17T08:32:31;99113.56;;;8.14;52.37
66430;BME280;53242;51.694;10.006;2023-03-17T08:34:54;99101.94;;;8.01;52.59
66430;BME280;53242;51.694;10.006;2023-03-17T08:37:16;99113.50;;;8.29;52.82
66430;BME280;53242;51.694;10.006;2023-03-17T08:39:39;99110.56;;;8.38;52.18
66430;BME280;53242;51.694;10.006;2023-03-17T08:42:02;99119.22;;;8.54;51.96
66430;BME280;53242;51.694;10.006;2023-03-17T08:44:25;99129.34;;;8.85;51.32
66430;BME280;53242;51.694;10.006;2023-03-17T08:46:49;99117.63;;;8.88;51.14
66430;BME280;53242;51.694;10.006;2023-03-17T08:49:11;99115.59;;;9.18;51.03
66430;BME280;53242;51.694;10.006;2023-03-17T08:51:36;99115.19;;;9.21;50.47
66430;BME280;53242;51.694;10.006;2023-03-17T08:53:58;99125.22;;;9.46;50.25
66430;BME280;53242;51.694;10.006;2023-03-17T08:56:21;99129.97;;;9.71;50.52
66430;BME280;53242;51.694;10.006;2023-03-17T08:58:44;99120.47;;;9.77;50.04
66430;BME280;53242;51.694;10.006;2023-03-17T09:01:07;99121.13;;;9.85;49.96
66430;BME280;53242;51.694;10.006;2023-03-17T09:03:32;99106.75;;;10.01;50.00
66430;BME280;53242;51.694;10.006;2023-03-17T09:05:55;99102.03;;;9.83;50.03
66430;BME280;53242;51.694;10.006;2023-03-17T09:08:18;99088.25;;;9.81;50.04
66430;BME280;53242;51.694;10.006;2023-03-17T09:10:40;99075.31;;;9.93;49.55
66430;BME280;53242;51.694;10.006;2023-03-17T09:13:03;99074.91;;;10.03;49.92
66430;BME280;53242;51.694;10.006;2023-03-17T09:15:25;99070.66;;;10.29;49.27
66430;BME280;53242;51.694;10.006;2023-03-17T09:17:48;99068.03;;;10.22;48.83
66430;BME280;53242;51.694;10.006;2023-03-17T09:20:10;99057.09;;;10.45;48.49
66430;BME280;53242;51.694;10.006;2023-03-17T09:22:33;99060.16;;;10.49;47.95
66430;BME280;53242;51.694;10.006;2023-03-17T09:24:55;99052.63;;;10.52;47.87
66430;BME280;53242;51.694;10.006;2023-03-17T09:27:18;99054.44;;;10.65;47.57
66430;BME280;53242;51.694;10.006;2023-03-17T09:29:40;99065.59;;;10.81;47.34
66430;BME280;53242;51.694;10.006;2023-03-17T09:32:03;99058.25;;;10.90;47.67
66430;BME280;53242;51.694;10.006;2023-03-17T09:34:25;99054.38;;;10.85;47.46
66430;BME280;53242;51.694;10.006;2023-03-17T09:36:48;99056.59;;;11.02;46.57
66430;BME280;53242;51.694;10.006;2023-03-17T09:39:10;99051.47;;;11.07;46.59
66430;BME280;53242;51.694;10.006;2023-03-17T09:41:47;99054.28;;;11.19;46.42
66430;BME280;53242;51.694;10.006;2023-03-17T09:44:27;99062.84;;;11.14;46.62
66430;BME280;53242;51.694;10.006;2023-03-17T09:47:01;99063.25;;;11.18;47.47
66430;BME280;53242;51.694;10.006;2023-03-17T09:49:36;99050.00;;;11.25;47.30
66430;BME280;53242;51.694;10.006;2023-03-17T09:52:01;99052.84;;;11.30;47.33
66430;BME280;53242;51.694;10.006;2023-03-17T09:54:33;99060.28;;;11.46;46.99
66430;BME280;53242;51.694;10.006;2023-03-17T09:57:13;99052.38;;;11.40;47.37
66430;BME280;53242;51.694;10.006;2023-03-17T09:59:43;99053.00;;;11.35;47.87
66430;BME280;53242;51.694;10.006;2023-03-17T10:02:21;99051.00;;;11.69;47.33
66430;BME280;53242;51.694;10.006;2023-03-17T10:04:44;99046.31;;;11.71;47.56
66430;BME280;53242;51.694;10.006;2023-03-17T10:07:09;99035.97;;;12.01;46.97
66430;BME280;53242;51.694;10.006;2023-03-17T10:09:40;99035.59;;;12.23;46.33
66430;BME280;53242;51.694;10.006;2023-03-17T10:12:09;99042.53;;;12.43;46.27
66430;BME280;53242;51.694;10.006;2023-03-17T10:17:25;99038.75;;;12.94;44.71
66430;BME280;53242;51.694;10.006;2023-03-17T10:20:24;99038.53;;;13.33;43.43
66430;BME280;53242;51.694;10.006;2023-03-17T10:23:01;99032.09;;;13.59;41.51
66430;BME280;53242;51.694;10.006;2023-03-17T10:25:28;99022.69;;;13.75;41.21
66430;BME280;53242;51.694;10.006;2023-03-17T10:28:03;99029.19;;;13.91;41.02
66430;BME280;53242;51.694;10.006;2023-03-17T10:30:30;99026.59;;;13.73;38.87
66430;BME280;53242;51.694;10.006;2023-03-17T10:32:58;99026.31;;;13.93;39.68
66430;BME280;53242;51.694;10.006;2023-03-17T10:35:22;99016.84;;;13.97;39.84
66430;BME280;53242;51.694;10.006;2023-03-17T10:37:47;99017.09;;;14.19;38.87
66430;BME280;53242;51.694;10.006;2023-03-17T10:40:39;99020.56;;;14.20;38.33
66430;BME280;53242;51.694;10.006;2023-03-17T10:43:05;99006.28;;;14.33;40.02
66430;BME280;53242;51.694;10.006;2023-03-17T10:45:32;99003.13;;;14.47;38.94
66430;BME280;53242;51.694;10.006;2023-03-17T10:47:57;99007.06;;;14.80;39.19
66430;BME280;53242;51.694;10.006;2023-03-17T10:50:29;99009.22;;;14.84;37.73
66430;BME280;53242;51.694;10.006;2023-03-17T10:53:20;99002.06;;;14.96;37.19
66430;BME280;53242;51.694;10.006;2023-03-17T10:55:51;99006.88;;;14.99;37.86
66430;BME280;53242;51.694;10.006;2023-03-17T11:01:03;98997.19;;;15.05;37.67
66430;BME280;53242;51.694;10.006;2023-03-17T11:03:29;98998.31;;;15.09;38.23
66430;BME280;53242;51.694;10.006;2023-03-17T11:05:59;99002.25;;;15.06;37.77
66430;BME280;53242;51.694;10.006;2023-03-17T11:08:23;99001.88;;;15.15;38.29
66430;BME280;53242;51.694;10.006;2023-03-17T11:10:53;99005.50;;;15.08;37.94
66430;BME280;53242;51.694;10.006;2023-03-17T11:13:16;99014.56;;;15.24;38.39
66430;BME280;53242;51.694;10.006;2023-03-17T11:15:42;99005.81;;;15.12;37.46
66430;BME280;53242;51.694;10.006;2023-03-17T11:18:34;99010.03;;;15.25;37.26
66430;BME280;53242;51.694;10.006;2023-03-17T11:21:01;99014.41;;;15.31;37.36
66430;BME280;53242;51.694;10.006;2023-03-17T11:23:46;99011.06;;;15.36;37.97
66430;BME280;53242;51.694;10.006;2023-03-17T11:26:27;99005.00;;;15.40;36.95
66430;BME280;53242;51.694;10.006;2023-03-17T11:37:02;98990.59;;;15.36;37.28
66430;BME280;53242;51.694;10.006;2023-03-17T11:39:52;98991.22;;;15.26;36.39
66430;BME280;53242;51.694;10.006;2023-03-17T11:42:19;98996.75;;;15.25;36.77
66430;BME280;53242;51.694;10.006;2023-03-17T11:47:43;98988.75;;;15.37;37.48
66430;BME280;53242;51.694;10.006;2023-03-17T11:55:47;98986.53;;;15.62;37.15
66430;BME280;53242;51.694;10.006;2023-03-17T11:58:25;98978.66;;;15.68;37.23
66430;BME280;53242;51.694;10.006;2023-03-17T12:00:52;98973.00;;;15.64;37.03
66430;BME280;53242;51.694;10.006;2023-03-17T12:03:32;98972.91;;;15.76;37.03
66430;BME280;53242;51.694;10.006;2023-03-17T12:06:02;98973.94;;;15.87;37.45
66430;BME280;53242;51.694;10.006;2023-03-17T12:08:47;98975.53;;;15.88;36.72
66430;BME280;53242;51.694;10.006;2023-03-17T12:11:17;98972.84;;;15.71;37.13
66430;BME280;53242;51.694;10.006;2023-03-17T12:13:45;98971.47;;;15.68;36.55
66430;BME280;53242;51.694;10.006;2023-03-17T12:16:28;98966.06;;;15.80;37.02
66430;BME280;53242;51.694;10.006;2023-03-17T12:19:06;98959.56;;;15.88;36.24
66430;BME280;53242;51.694;10.006;2023-03-17T12:21:44;98971.78;;;15.72;36.40
66430;BME280;53242;51.694;10.006;2023-03-17T12:24:18;98967.78;;;15.86;37.28
66430;BME280;53242;51.694;10.006;2023-03-17T12:29:39;98972.94;;;15.93;37.08
66430;BME280;53242;51.694;10.006;2023-03-17T12:32:10;98970.06;;;15.94;37.96
66430;BME280;53242;51.694;10.006;2023-03-17T12:34:48;98964.81;;;16.00;36.74
66430;BME280;53242;51.694;10.006;2023-03-17T12:37:13;98967.63;;;15.93;37.55
66430;BME280;53242;51.694;10.006;2023-03-17T12:39:39;98965.88;;;15.70;36.78
66430;BME280;53242;51.694;10.006;2023-03-17T12:42:19;98953.72;;;15.74;36.58
66430;BME280;53242;51.694;10.006;2023-03-17T12:47:42;98954.38;;;15.64;36.36
66430;BME280;53242;51.694;10.006;2023-03-17T12:50:41;98957.66;;;15.71;36.57
66430;BME280;53242;51.694;10.006;2023-03-17T12:55:37;98950.00;;;15.75;36.56
66430;BME280;53242;51.694;10.006;2023-03-17T12:58:29;98953.00;;;15.78;35.90
66430;BME280;53242;51.694;10.006;2023-03-17T13:01:05;98949.75;;;15.88;36.79
66430;BME280;53242;51.694;10.006;2023-03-17T13:03:33;98947.47;;;15.97;37.09
66430;BME280;53242;51.694;10.006;2023-03-17T13:06:02;98957.16;;;15.86;37.22
66430;BME280;53242;51.694;10.006;2023-03-17T13:08:30;98955.13;;;15.93;36.22
66430;BME280;53242;51.694;10.006;2023-03-17T13:11:16;98959.84;;;15.74;35.57
66430;BME280;53242;51.694;10.006;2023-03-17T13:14:06;98965.84;;;15.82;36.61
66430;BME280;53242;51.694;10.006;2023-03-17T13:16:38;98957.84;;;15.82;38.43
66430;BME280;53242;51.694;10.006;2023-03-17T13:21:48;98952.47;;;15.93;37.69
66430;BME280;53242;51.694;10.006;2023-03-17T13:26:59;98941.31;;;15.79;36.32
66430;BME280;53242;51.694;10.006;2023-03-17T13:34:44;98940.13;;;15.87;37.04
66430;BME280;53242;51.694;10.006;2023-03-17T13:37:24;98927.31;;;15.84;36.34